createdAt,value
2023-02-05T00:01:28.477Z,99.90
2023-02-05T00:03:55.627Z,99.90
2023-02-05T00:06:22.531Z,99.90
2023-02-05T00:08:49.302Z,99.90
2023-02-05T00:11:16.033Z,99.90
2023-02-05T00:13:43.460Z,99.90
2023-02-05T00:16:22.157Z,99.90
2023-02-05T00:18:48.993Z,99.90
2023-02-05T00:21:17.983Z,99.90
2023-02-05T00:23:44.783Z,99.90
2023-02-05T00:26:13.321Z,99.90
2023-02-05T00:28:41.046Z,99.90
2023-02-05T00:31:12.356Z,99.90
2023-02-05T00:33:39.522Z,99.90
2023-02-05T00:36:07.355Z,99.90
2023-02-05T00:38:34.150Z,99.90
2023-02-05T00:41:00.991Z,99.90
2023-02-05T00:43:27.794Z,99.90
2023-02-05T00:45:54.650Z,99.90
2023-02-05T00:48:21.420Z,99.90
2023-02-05T00:50:53.166Z,99.90
2023-02-05T00:53:22.803Z,99.90
2023-02-05T00:55:49.873Z,99.90
2023-02-05T00:58:17.110Z,99.90
2023-02-05T01:00:43.879Z,99.90
2023-02-05T01:03:11.423Z,99.90
2023-02-05T01:05:39.927Z,99.90
2023-02-05T01:08:08.659Z,99.90
2023-02-05T01:10:37.058Z,99.90
2023-02-05T01:13:05.712Z,99.90
2023-02-05T01:15:33.467Z,99.90
2023-02-05T01:18:00.856Z,99.90
2023-02-05T01:20:27.971Z,99.90
2023-02-05T01:22:55.284Z,99.90
2023-02-05T01:25:22.097Z,99.90
2023-02-05T01:27:49.006Z,99.90
2023-02-05T01:30:15.893Z,99.90
2023-02-05T01:32:42.688Z,99.90
2023-02-05T01:35:09.730Z,99.90
2023-02-05T01:37:36.669Z,99.90
2023-02-05T01:40:04.991Z,99.90
2023-02-05T01:42:33.324Z,99.90
2023-02-05T01:45:21.782Z,99.90
2023-02-05T01:48:01.406Z,99.90
2023-02-05T01:50:51.080Z,99.90
2023-02-05T01:53:29.659Z,99.90
2023-02-05T01:56:04.576Z,99.90
2023-02-05T01:58:37.827Z,99.90
2023-02-05T02:01:04.811Z,99.90
2023-02-05T02:03:32.183Z,99.90
2023-02-05T02:05:59.461Z,99.90
2023-02-05T02:08:26.991Z,99.90
2023-02-05T02:10:58.111Z,99.90
2023-02-05T02:13:28.670Z,99.90
2023-02-05T02:15:57.478Z,99.90
2023-02-05T02:18:26.430Z,99.90
2023-02-05T02:21:22.465Z,99.90
2023-02-05T02:24:15.567Z,99.90
2023-02-05T02:27:11.627Z,99.90
2023-02-05T02:29:52.923Z,99.90
2023-02-05T02:32:41.326Z,99.90
2023-02-05T02:35:26.425Z,99.90
2023-02-05T02:38:16.321Z,99.90
2023-02-05T02:40:55.092Z,99.90
2023-02-05T02:43:41.054Z,99.90
2023-02-05T02:46:23.552Z,99.90
2023-02-05T02:48:55.090Z,99.90
2023-02-05T02:51:25.258Z,99.90
2023-02-05T02:53:57.784Z,99.90
2023-02-05T02:56:29.218Z,99.90
2023-02-05T02:59:08.226Z,99.90
2023-02-05T03:01:42.583Z,99.90
2023-02-05T03:04:22.106Z,99.90
2023-02-05T03:06:54.497Z,99.90
2023-02-05T03:09:34.865Z,99.90
2023-02-05T03:12:01.715Z,99.90
2023-02-05T03:14:28.482Z,99.90
2023-02-05T03:16:55.253Z,99.90
2023-02-05T03:19:22.172Z,99.90
2023-02-05T03:21:56.669Z,99.90
2023-02-05T03:24:24.044Z,99.90
2023-02-05T03:26:50.885Z,99.90
2023-02-05T03:29:26.932Z,99.90
2023-02-05T03:32:31.222Z,99.90
2023-02-05T03:35:45.323Z,99.90
2023-02-05T03:38:57.828Z,99.90
2023-02-05T03:41:58.465Z,99.90
2023-02-05T03:45:02.082Z,99.90
2023-02-05T03:48:11.087Z,99.90
2023-02-05T03:51:04.930Z,99.90
2023-02-05T03:53:45.053Z,99.90
2023-02-05T03:56:28.591Z,99.90
2023-02-05T03:58:58.003Z,99.90
2023-02-05T04:01:25.493Z,99.90
2023-02-05T04:03:52.333Z,99.90
2023-02-05T04:06:19.221Z,99.90
2023-02-05T04:08:45.942Z,99.90
2023-02-05T04:11:13.535Z,99.90
2023-02-05T04:13:40.294Z,99.90
2023-02-05T04:16:07.041Z,99.90
2023-02-05T04:18:33.820Z,99.90
2023-02-05T04:21:01.608Z,99.90
2023-02-05T04:23:28.404Z,99.90
2023-02-05T04:25:55.818Z,99.90
2023-02-05T04:28:22.600Z,99.90
2023-02-05T04:30:49.369Z,99.90
2023-02-05T04:33:16.120Z,99.90
2023-02-05T04:35:43.018Z,99.90
2023-02-05T04:38:09.785Z,99.90
2023-02-05T04:40:36.557Z,99.90
2023-02-05T04:43:03.275Z,99.90
2023-02-05T04:45:31.101Z,99.90
2023-02-05T04:47:59.428Z,99.90
2023-02-05T04:50:26.790Z,99.90
2023-02-05T04:52:53.607Z,99.90
2023-02-05T04:55:20.429Z,99.90
2023-02-05T04:57:47.170Z,99.90
2023-02-05T05:00:14.983Z,99.90
2023-02-05T05:02:41.745Z,99.90
2023-02-05T05:05:09.163Z,99.90
2023-02-05T05:07:35.891Z,99.90
2023-02-05T05:10:02.621Z,99.90
2023-02-05T05:12:29.374Z,99.90
2023-02-05T05:14:56.128Z,99.90
2023-02-05T05:17:22.837Z,99.90
2023-02-05T05:19:49.545Z,99.90
2023-02-05T05:22:16.298Z,99.90
2023-02-05T05:24:43.120Z,99.90
2023-02-05T05:27:09.870Z,99.90
2023-02-05T05:29:37.343Z,99.90
2023-02-05T05:32:05.099Z,99.90
2023-02-05T05:34:31.970Z,99.90
2023-02-05T05:36:58.665Z,99.90
2023-02-05T05:39:43.815Z,99.90
2023-02-05T05:42:30.714Z,99.90
2023-02-05T05:44:57.523Z,99.90
2023-02-05T05:47:24.558Z,99.90
2023-02-05T05:49:51.374Z,99.90
2023-02-05T05:52:18.098Z,99.90
2023-02-05T05:54:44.858Z,99.90
2023-02-05T05:57:11.577Z,99.90
2023-02-05T05:59:38.259Z,99.90
2023-02-05T06:02:05.112Z,99.90
2023-02-05T06:04:32.045Z,99.90
2023-02-05T06:06:59.281Z,99.90
2023-02-05T06:09:26.094Z,99.90
2023-02-05T06:11:52.830Z,99.90
2023-02-05T06:14:19.550Z,99.90
2023-02-05T06:16:46.371Z,99.90
2023-02-05T06:19:13.109Z,99.90
2023-02-05T06:21:39.857Z,99.90
2023-02-05T06:24:06.740Z,99.90
2023-02-05T06:26:33.465Z,99.90
2023-02-05T06:29:03.169Z,99.90
2023-02-05T06:31:31.248Z,99.90
2023-02-05T06:33:58.076Z,99.90
2023-02-05T06:36:24.858Z,99.90
2023-02-05T06:38:51.586Z,99.90
2023-02-05T06:41:18.631Z,99.90
2023-02-05T06:43:45.441Z,99.90
2023-02-05T06:46:12.247Z,99.90
2023-02-05T06:48:38.995Z,99.90
2023-02-05T06:51:06.148Z,99.90
2023-02-05T06:53:33.109Z,99.90
2023-02-05T06:55:59.869Z,99.90
2023-02-05T06:58:26.620Z,99.90
2023-02-05T07:00:53.342Z,99.90
2023-02-05T07:03:20.070Z,99.90
2023-02-05T07:05:46.871Z,99.90
2023-02-05T07:08:13.596Z,99.90
2023-02-05T07:10:40.344Z,99.90
2023-02-05T07:13:07.087Z,99.90
2023-02-05T07:15:37.339Z,99.90
2023-02-05T07:18:05.322Z,99.90
2023-02-05T07:20:32.307Z,99.90
2023-02-05T07:22:59.173Z,99.90
2023-02-05T07:25:26.536Z,99.90
2023-02-05T07:27:53.298Z,99.90
2023-02-05T07:30:20.236Z,99.90
2023-02-05T07:32:46.939Z,99.90
2023-02-05T07:35:13.652Z,99.90
2023-02-05T07:37:40.426Z,99.90
2023-02-05T07:40:08.236Z,99.90
2023-02-05T07:42:34.921Z,99.90
2023-02-05T07:45:01.721Z,99.90
2023-02-05T07:47:28.463Z,99.90
2023-02-05T07:49:55.268Z,99.90
2023-02-05T07:52:22.423Z,99.90
2023-02-05T07:54:49.215Z,99.90
2023-02-05T07:57:15.940Z,99.90
2023-02-05T07:59:42.731Z,99.90
2023-02-05T08:02:11.688Z,99.90
2023-02-05T08:04:38.466Z,99.90
2023-02-05T08:07:05.378Z,99.90
2023-02-05T08:09:32.079Z,99.90
2023-02-05T08:11:58.886Z,99.90
2023-02-05T08:14:25.675Z,99.80
2023-02-05T08:16:52.378Z,98.00
2023-02-05T08:19:19.307Z,98.30
2023-02-05T08:21:46.075Z,98.60
2023-02-05T08:24:12.935Z,99.40
2023-02-05T08:26:40.176Z,99.90
2023-02-05T08:29:08.262Z,99.90
2023-02-05T08:31:35.898Z,99.90
2023-02-05T08:34:03.418Z,99.90
2023-02-05T08:36:30.733Z,99.90
2023-02-05T08:38:57.478Z,99.90
2023-02-05T08:41:24.270Z,99.90
2023-02-05T08:43:54.588Z,99.90
2023-02-05T08:46:33.877Z,99.90
2023-02-05T08:49:10.521Z,99.90
2023-02-05T08:51:37.232Z,99.90
2023-02-05T08:54:05.674Z,99.90
2023-02-05T08:56:32.403Z,99.90
2023-02-05T08:58:59.124Z,99.90
2023-02-05T09:01:25.964Z,99.90
2023-02-05T09:03:52.751Z,99.90
2023-02-05T09:06:19.456Z,99.90
2023-02-05T09:08:46.836Z,99.90
2023-02-05T09:11:13.717Z,99.90
2023-02-05T09:13:40.792Z,99.90
2023-02-05T09:16:11.136Z,99.90
2023-02-05T09:18:38.243Z,99.90
2023-02-05T09:21:10.532Z,99.90
2023-02-05T09:23:38.056Z,99.90
2023-02-05T09:26:05.630Z,99.90
2023-02-05T09:28:32.827Z,99.90
2023-02-05T09:31:05.963Z,99.90
2023-02-05T09:33:32.778Z,99.90
2023-02-05T09:36:06.941Z,99.90
2023-02-05T09:38:33.651Z,99.90
2023-02-05T09:41:05.698Z,99.90
2023-02-05T09:44:06.718Z,99.90
2023-02-05T09:46:59.241Z,99.90
2023-02-05T09:49:59.064Z,99.90
2023-02-05T09:52:41.857Z,99.90
2023-02-05T09:55:37.238Z,99.90
2023-02-05T09:58:11.808Z,99.90
2023-02-05T10:01:02.549Z,99.90
2023-02-05T10:03:44.714Z,99.90
2023-02-05T10:06:46.591Z,99.90
2023-02-05T10:09:48.858Z,99.90
2023-02-05T10:12:39.346Z,99.90
2023-02-05T10:15:41.427Z,99.90
2023-02-05T10:19:00.800Z,99.90
2023-02-05T10:21:58.932Z,99.90
2023-02-05T10:24:58.623Z,99.90
2023-02-05T10:27:43.741Z,99.90
2023-02-05T10:30:30.743Z,99.90
2023-02-05T10:33:25.914Z,99.90
2023-02-05T10:36:06.719Z,99.90
2023-02-05T10:38:42.066Z,99.90
2023-02-05T10:41:24.280Z,99.90
2023-02-05T10:44:14.966Z,99.90
2023-02-05T10:46:45.949Z,99.90
2023-02-05T10:49:24.231Z,99.90
2023-02-05T10:51:50.976Z,99.90
2023-02-05T10:54:29.997Z,99.90
2023-02-05T10:56:58.588Z,99.90
2023-02-05T10:59:33.832Z,99.90
2023-02-05T11:02:09.569Z,99.90
2023-02-05T11:04:55.090Z,99.90
2023-02-05T11:07:41.944Z,99.90
2023-02-05T11:10:22.488Z,99.90
2023-02-05T11:12:56.915Z,99.90
2023-02-05T11:15:31.295Z,99.90
2023-02-05T11:18:05.761Z,99.90
2023-02-05T11:20:39.941Z,99.90
2023-02-05T11:23:20.116Z,99.90
2023-02-05T11:26:18.106Z,99.90
2023-02-05T11:28:45.080Z,99.90
2023-02-05T11:31:34.670Z,99.90
2023-02-05T11:34:07.590Z,99.90
2023-02-05T11:36:36.812Z,99.90
2023-02-05T11:39:06.480Z,99.90
2023-02-05T11:41:48.381Z,99.90
2023-02-05T11:44:32.169Z,99.90
2023-02-05T11:47:01.887Z,99.50
2023-02-05T11:49:37.633Z,99.40
2023-02-05T11:52:15.024Z,99.40
2023-02-05T11:54:47.470Z,99.10
2023-02-05T11:57:17.183Z,99.20
2023-02-05T12:00:18.511Z,99.20
2023-02-05T12:02:49.913Z,99.40
2023-02-05T12:05:16.638Z,98.50
2023-02-05T12:08:11.009Z,98.20
2023-02-05T12:11:04.278Z,98.50
2023-02-05T12:13:51.347Z,98.30
2023-02-05T12:16:52.654Z,98.40
2023-02-05T12:19:31.328Z,98.30
2023-02-05T12:22:10.599Z,97.80
2023-02-05T12:25:08.824Z,97.90
2023-02-05T12:27:57.662Z,98.30
2023-02-05T12:30:32.288Z,98.20
2023-02-05T12:33:45.601Z,98.40
2023-02-05T12:37:01.030Z,98.80
2023-02-05T12:39:50.086Z,98.90
2023-02-05T12:42:39.575Z,99.10
2023-02-05T12:45:38.257Z,99.20
2023-02-05T12:48:20.118Z,99.00
2023-02-05T12:51:03.958Z,98.80
2023-02-05T12:54:00.090Z,98.60
2023-02-05T12:57:00.857Z,98.80
2023-02-05T12:59:44.358Z,98.70
2023-02-05T13:02:29.340Z,98.00
2023-02-05T13:05:11.094Z,97.30
2023-02-05T13:07:45.467Z,96.90
2023-02-05T13:10:26.805Z,96.70
2023-02-05T13:13:02.223Z,96.20
2023-02-05T13:15:40.378Z,96.50
2023-02-05T13:18:22.880Z,96.70
2023-02-05T13:21:17.141Z,95.90
2023-02-05T13:24:05.060Z,95.90
2023-02-05T13:26:59.504Z,96.10
2023-02-05T13:29:43.982Z,95.90
2023-02-05T13:32:16.544Z,96.10
2023-02-05T13:34:43.843Z,96.40
2023-02-05T13:37:20.343Z,96.90
2023-02-05T13:40:27.625Z,97.10
2023-02-05T13:43:34.308Z,97.20
2023-02-05T13:46:55.715Z,97.10
2023-02-05T13:49:59.482Z,97.00
2023-02-05T13:52:54.042Z,97.00
2023-02-05T13:55:28.785Z,97.20
2023-02-05T13:58:08.717Z,97.20
2023-02-05T14:00:41.151Z,97.30
2023-02-05T14:03:18.544Z,97.50
2023-02-05T14:05:46.000Z,97.20
2023-02-05T14:08:26.469Z,97.30
2023-02-05T14:11:01.764Z,97.30
2023-02-05T14:13:45.058Z,97.20
2023-02-05T14:16:25.715Z,97.30
2023-02-05T14:19:01.165Z,97.20
2023-02-05T14:21:31.117Z,97.30
2023-02-05T14:24:23.492Z,97.50
2023-02-05T14:26:53.386Z,97.40
2023-02-05T14:29:43.285Z,97.70
2023-02-05T14:32:12.228Z,98.00
2023-02-05T14:34:38.869Z,98.00
2023-02-05T14:37:05.851Z,98.10
2023-02-05T14:39:34.723Z,98.00
2023-02-05T14:42:07.636Z,98.00
2023-02-05T14:44:42.271Z,98.20
2023-02-05T14:47:26.028Z,97.80
2023-02-05T14:50:29.318Z,97.90
2023-02-05T14:53:02.557Z,98.20
2023-02-05T14:55:43.607Z,98.30
2023-02-05T14:58:32.865Z,98.50
2023-02-05T15:01:41.932Z,98.80
2023-02-05T15:04:34.125Z,99.10
2023-02-05T15:07:12.718Z,99.30
2023-02-05T15:10:01.221Z,99.70
2023-02-05T15:12:54.944Z,99.90
2023-02-05T15:15:35.391Z,99.90
2023-02-05T15:18:06.250Z,99.90
2023-02-05T15:20:37.998Z,99.90
2023-02-05T15:23:29.751Z,99.90
2023-02-05T15:26:20.945Z,99.90
2023-02-05T15:28:59.466Z,99.90
2023-02-05T15:31:42.856Z,99.90
2023-02-05T15:34:33.413Z,99.90
2023-02-05T15:37:10.345Z,99.90
2023-02-05T15:39:56.830Z,99.90
2023-02-05T15:42:42.523Z,99.90
2023-02-05T15:45:29.291Z,99.90
2023-02-05T15:48:11.023Z,99.90
2023-02-05T15:50:50.011Z,99.90
2023-02-05T15:53:44.840Z,99.90
2023-02-05T15:56:26.766Z,99.90
2023-02-05T15:59:15.182Z,99.90
2023-02-05T16:01:47.978Z,99.90
2023-02-05T16:04:29.536Z,99.90
2023-02-05T16:06:56.795Z,99.90
2023-02-05T16:09:27.585Z,99.90
2023-02-05T16:11:55.656Z,99.90
2023-02-05T16:14:33.073Z,99.90
2023-02-05T16:17:12.110Z,99.90
2023-02-05T16:19:56.067Z,99.90
2023-02-05T16:22:41.892Z,99.90
2023-02-05T16:25:39.819Z,99.90
2023-02-05T16:28:21.944Z,99.90
2023-02-05T16:30:54.028Z,99.90
2023-02-05T16:34:01.711Z,99.90
2023-02-05T16:36:34.236Z,99.90
2023-02-05T16:39:06.672Z,99.90
2023-02-05T16:41:39.561Z,99.90
2023-02-05T16:44:33.994Z,99.90
2023-02-05T16:47:19.284Z,99.90
2023-02-05T16:49:49.375Z,99.90
2023-02-05T16:52:42.049Z,99.90
2023-02-05T16:55:30.596Z,99.90
2023-02-05T16:58:05.442Z,99.90
2023-02-05T17:00:33.750Z,99.90
2023-02-05T17:03:17.523Z,99.90
2023-02-05T17:05:44.553Z,99.90
2023-02-05T17:08:12.556Z,99.90
2023-02-05T17:10:57.991Z,99.90
2023-02-05T17:13:38.008Z,99.90
2023-02-05T17:16:25.546Z,99.90
2023-02-05T17:19:21.918Z,99.90
2023-02-05T17:22:15.042Z,99.90
2023-02-05T17:24:49.892Z,99.90
2023-02-05T17:27:36.685Z,99.90
2023-02-05T17:30:10.314Z,99.90
2023-02-05T17:32:37.582Z,99.90
2023-02-05T17:35:17.472Z,99.90
2023-02-05T17:37:44.323Z,99.90
2023-02-05T17:40:14.845Z,99.90
2023-02-05T17:42:41.964Z,99.90
2023-02-05T17:45:28.283Z,99.90
2023-02-05T17:47:54.983Z,99.90
2023-02-05T17:50:22.395Z,99.90
2023-02-05T17:52:49.270Z,99.90
2023-02-05T17:55:19.958Z,99.90
2023-02-05T17:57:46.705Z,99.90
2023-02-05T18:00:19.376Z,99.90
2023-02-05T18:02:46.150Z,99.90
2023-02-05T18:05:13.155Z,99.90
2023-02-05T18:07:46.205Z,99.90
2023-02-05T18:10:18.643Z,99.90
2023-02-05T18:12:45.794Z,99.90
2023-02-05T18:15:13.025Z,99.90
2023-02-05T18:17:41.269Z,99.90
2023-02-05T18:20:09.684Z,99.90
2023-02-05T18:22:37.070Z,99.90
2023-02-05T18:25:05.967Z,99.90
2023-02-05T18:27:33.488Z,99.90
2023-02-05T18:30:00.242Z,99.90
2023-02-05T18:32:27.770Z,99.90
2023-02-05T18:34:54.556Z,99.90
2023-02-05T18:37:21.500Z,99.90
2023-02-05T18:39:48.452Z,99.90
2023-02-05T18:42:15.577Z,99.90
2023-02-05T18:44:42.357Z,99.90
2023-02-05T18:47:10.704Z,99.90
2023-02-05T18:49:38.416Z,99.90
2023-02-05T18:52:06.134Z,99.90
2023-02-05T18:54:33.164Z,99.90
2023-02-05T18:57:00.020Z,99.90
2023-02-05T18:59:26.806Z,99.90
2023-02-05T19:01:53.979Z,99.90
2023-02-05T19:04:21.119Z,99.90
2023-02-05T19:06:54.789Z,99.90
2023-02-05T19:09:24.654Z,99.90
2023-02-05T19:11:53.210Z,99.90
2023-02-05T19:14:22.619Z,99.90
2023-02-05T19:16:50.652Z,99.90
2023-02-05T19:19:25.287Z,99.90
2023-02-05T19:21:55.796Z,99.90
2023-02-05T19:24:23.055Z,99.90
2023-02-05T19:26:51.079Z,99.90
2023-02-05T19:29:20.563Z,99.90
2023-02-05T19:31:48.385Z,99.90
2023-02-05T19:34:15.851Z,99.90
2023-02-05T19:36:43.265Z,99.90
2023-02-05T19:39:14.211Z,99.90
2023-02-05T19:41:45.411Z,99.90
2023-02-05T19:44:12.401Z,99.90
2023-02-05T19:46:47.042Z,99.90
2023-02-05T19:49:20.160Z,99.90
2023-02-05T19:51:54.171Z,99.90
2023-02-05T19:54:21.821Z,99.90
2023-02-05T19:56:49.524Z,99.90
2023-02-05T19:59:16.941Z,99.90
2023-02-05T20:01:44.983Z,99.90
2023-02-05T20:04:27.100Z,99.90
2023-02-05T20:06:59.669Z,99.90
2023-02-05T20:09:28.042Z,99.90
2023-02-05T20:11:55.600Z,99.90
2023-02-05T20:14:23.941Z,99.90
2023-02-05T20:16:51.929Z,99.90
2023-02-05T20:19:19.798Z,99.90
2023-02-05T20:21:47.742Z,99.90
2023-02-05T20:24:16.312Z,99.90
2023-02-05T20:26:44.913Z,99.90
2023-02-05T20:29:30.521Z,99.90
2023-02-05T20:31:58.418Z,99.90
2023-02-05T20:34:30.363Z,99.90
2023-02-05T20:37:05.473Z,99.90
2023-02-05T20:39:35.102Z,99.90
2023-02-05T20:42:02.504Z,99.90
2023-02-05T20:44:33.812Z,99.90
2023-02-05T20:47:00.792Z,99.90
2023-02-05T20:49:27.789Z,99.90
2023-02-05T20:51:55.877Z,99.90
2023-02-05T20:54:23.031Z,99.90
2023-02-05T20:56:51.850Z,99.90
2023-02-05T20:59:18.645Z,99.90
2023-02-05T21:01:45.542Z,99.90
2023-02-05T21:04:12.653Z,99.90
2023-02-05T21:06:40.746Z,99.90
2023-02-05T21:09:09.919Z,99.90
2023-02-05T21:11:37.922Z,99.90
2023-02-05T21:14:08.752Z,99.90
2023-02-05T21:16:36.261Z,99.90
2023-02-05T21:19:05.999Z,99.90
2023-02-05T21:21:35.667Z,99.90
2023-02-05T21:24:08.950Z,99.90
2023-02-05T21:26:39.644Z,99.90
2023-02-05T21:29:13.426Z,99.90
2023-02-05T21:31:45.931Z,99.90
2023-02-05T21:34:22.189Z,99.90
2023-02-05T21:36:50.707Z,99.90
2023-02-05T21:39:20.235Z,99.90
2023-02-05T21:41:48.443Z,99.90
2023-02-05T21:44:18.053Z,99.90
2023-02-05T21:46:44.800Z,99.90
2023-02-05T21:49:12.060Z,99.90
2023-02-05T21:51:39.807Z,99.90
2023-02-05T21:54:06.993Z,99.90
2023-02-05T21:56:43.678Z,99.90
2023-02-05T21:59:12.332Z,99.90
2023-02-05T22:01:39.509Z,99.90
2023-02-05T22:04:15.130Z,99.90
2023-02-05T22:06:43.040Z,99.90
2023-02-05T22:09:15.012Z,99.90
2023-02-05T22:11:42.284Z,99.90
2023-02-05T22:14:10.914Z,99.90
2023-02-05T22:16:38.337Z,99.90
2023-02-05T22:19:07.347Z,99.90
2023-02-05T22:21:41.483Z,99.90
2023-02-05T22:24:14.930Z,99.90
2023-02-05T22:26:42.334Z,99.90
2023-02-05T22:29:16.375Z,99.90
2023-02-05T22:31:46.842Z,99.90
2023-02-05T22:34:13.570Z,99.90
2023-02-05T22:36:40.326Z,99.90
2023-02-05T22:39:07.477Z,99.90
2023-02-05T22:41:40.890Z,99.90
2023-02-05T22:44:10.039Z,99.90
2023-02-05T22:46:43.342Z,99.90
2023-02-05T22:49:15.039Z,99.90
2023-02-05T22:51:43.199Z,99.90
2023-02-05T22:54:13.314Z,99.90
2023-02-05T22:56:40.127Z,99.90
2023-02-05T22:59:07.192Z,99.90
2023-02-05T23:01:36.400Z,99.90
2023-02-05T23:04:06.723Z,99.90
2023-02-05T23:06:38.103Z,99.90
2023-02-05T23:09:18.642Z,99.90
2023-02-05T23:11:46.545Z,99.90
2023-02-05T23:14:16.416Z,99.90
2023-02-05T23:16:46.120Z,99.90
2023-02-05T23:19:18.493Z,99.90
2023-02-05T23:21:46.919Z,99.90
2023-02-05T23:24:14.866Z,99.90
2023-02-05T23:26:47.075Z,99.90
2023-02-05T23:29:15.665Z,99.90
2023-02-05T23:31:43.105Z,99.90
2023-02-05T23:34:10.286Z,99.90
2023-02-05T23:36:37.569Z,99.90
2023-02-05T23:39:04.904Z,99.90
2023-02-05T23:41:37.555Z,99.90
2023-02-05T23:44:22.284Z,99.90
2023-02-05T23:46:50.908Z,99.90
2023-02-05T23:49:23.378Z,99.90
2023-02-05T23:51:53.405Z,99.90
2023-02-05T23:54:21.418Z,99.90
2023-02-05T23:56:49.334Z,99.90
2023-02-05T23:59:17.005Z,99.90
